createdAt,value
2023-02-15T00:01:58.734Z,6.10
2023-02-15T00:07:00.694Z,6.10
2023-02-15T00:12:02.635Z,6.10
2023-02-15T00:17:04.703Z,6.10
2023-02-15T00:22:07.246Z,6.00
2023-02-15T00:27:10.177Z,6.10
2023-02-15T00:32:12.181Z,6.00
2023-02-15T00:37:14.088Z,5.90
2023-02-15T00:42:16.007Z,5.80
2023-02-15T00:47:18.191Z,5.70
2023-02-15T00:52:20.103Z,5.70
2023-02-15T00:57:21.992Z,5.60
2023-02-15T01:02:23.915Z,5.60
2023-02-15T01:07:25.848Z,5.50
2023-02-15T01:12:28.159Z,5.50
2023-02-15T01:17:30.322Z,5.40
2023-02-15T01:22:32.221Z,5.40
2023-02-15T01:27:34.163Z,5.40
2023-02-15T01:32:36.171Z,5.40
2023-02-15T01:37:38.707Z,5.40
2023-02-15T01:42:41.038Z,5.40
2023-02-15T01:47:48.870Z,5.50
2023-02-15T01:53:23.604Z,5.50
2023-02-15T01:58:28.202Z,5.60
2023-02-15T02:04:12.006Z,5.60
2023-02-15T02:09:14.341Z,5.60
2023-02-15T02:14:18.632Z,5.60
2023-02-15T02:19:32.619Z,5.60
2023-02-15T02:25:07.919Z,5.60
2023-02-15T02:30:22.914Z,5.60
2023-02-15T02:35:34.214Z,5.70
2023-02-15T02:41:20.602Z,5.70
2023-02-15T02:46:36.364Z,5.70
2023-02-15T02:51:38.447Z,5.70
2023-02-15T02:56:48.933Z,5.60
2023-02-15T03:01:51.183Z,5.60
2023-02-15T03:06:55.868Z,5.40
2023-02-15T03:11:58.345Z,5.50
2023-02-15T03:17:01.596Z,5.60
2023-02-15T03:22:20.352Z,5.60
2023-02-15T03:27:27.346Z,5.50
2023-02-15T03:32:33.071Z,5.40
2023-02-15T03:37:47.750Z,5.20
2023-02-15T03:43:03.135Z,5.20
2023-02-15T03:48:09.293Z,5.30
2023-02-15T03:53:15.202Z,5.30
2023-02-15T03:58:35.694Z,5.40
2023-02-15T04:03:43.715Z,5.50
2023-02-15T04:09:04.532Z,5.50
2023-02-15T04:14:25.228Z,5.50
2023-02-15T04:19:46.178Z,5.50
2023-02-15T04:25:06.875Z,5.40
2023-02-15T04:30:10.671Z,5.30
2023-02-15T04:35:12.993Z,5.30
2023-02-15T04:40:19.207Z,5.30
2023-02-15T04:45:21.709Z,5.20
2023-02-15T04:50:23.788Z,5.20
2023-02-15T04:55:25.710Z,5.20
2023-02-15T05:00:28.501Z,5.30
2023-02-15T05:05:30.468Z,5.40
2023-02-15T05:10:32.498Z,5.40
2023-02-15T05:15:34.499Z,5.40
2023-02-15T05:20:36.336Z,5.30
2023-02-15T05:25:57.110Z,5.30
2023-02-15T05:31:11.946Z,5.30
2023-02-15T05:36:14.659Z,5.40
2023-02-15T05:41:17.125Z,5.40
2023-02-15T05:46:19.139Z,5.50
2023-02-15T05:51:21.071Z,5.50
2023-02-15T05:56:23.034Z,5.50
2023-02-15T06:01:25.027Z,5.50
2023-02-15T06:06:27.147Z,5.50
2023-02-15T06:11:29.105Z,5.50
2023-02-15T06:16:31.450Z,5.40
2023-02-15T06:21:33.496Z,5.40
2023-02-15T06:26:35.865Z,5.40
2023-02-15T06:31:38.004Z,5.40
2023-02-15T06:36:40.279Z,5.30
2023-02-15T06:41:42.255Z,5.30
2023-02-15T06:46:44.315Z,5.30
2023-02-15T06:51:46.241Z,5.20
2023-02-15T06:56:48.259Z,5.20
2023-02-15T07:01:50.390Z,5.10
2023-02-15T07:06:54.029Z,5.00
2023-02-15T07:12:15.284Z,5.00
2023-02-15T07:17:35.062Z,5.10
2023-02-15T07:22:38.282Z,5.20
2023-02-15T07:27:41.016Z,5.20
2023-02-15T07:33:05.092Z,5.20
2023-02-15T07:38:07.733Z,5.20
2023-02-15T07:43:10.610Z,5.20
2023-02-15T07:48:12.848Z,5.20
2023-02-15T07:53:15.285Z,5.30
2023-02-15T07:58:17.242Z,5.30
2023-02-15T08:03:19.237Z,5.40
2023-02-15T08:08:33.121Z,5.40
2023-02-15T08:13:34.995Z,5.40
2023-02-15T08:18:36.792Z,5.40
2023-02-15T08:23:38.634Z,5.40
2023-02-15T08:28:41.754Z,5.40
2023-02-15T08:33:45.474Z,5.40
2023-02-15T08:38:48.266Z,5.50
2023-02-15T08:43:55.498Z,5.50
2023-02-15T08:48:57.913Z,5.60
2023-02-15T08:54:02.201Z,5.50
2023-02-15T08:59:05.427Z,5.60
2023-02-15T09:04:11.693Z,5.60
2023-02-15T09:09:13.776Z,5.60
2023-02-15T09:14:21.342Z,5.60
2023-02-15T09:19:24.824Z,5.70
2023-02-15T09:24:26.704Z,5.60
2023-02-15T09:29:28.716Z,5.60
2023-02-15T09:34:34.024Z,5.60
2023-02-15T09:39:40.537Z,5.60
2023-02-15T09:45:07.774Z,5.60
2023-02-15T09:50:15.569Z,5.70
2023-02-15T09:55:23.610Z,5.80
2023-02-15T10:00:53.294Z,5.90
2023-02-15T10:06:26.557Z,5.90
2023-02-15T10:11:47.186Z,5.80
2023-02-15T10:17:10.830Z,5.80
2023-02-15T10:22:29.815Z,5.90
2023-02-15T10:27:34.933Z,5.80
2023-02-15T10:32:54.990Z,5.80
2023-02-15T10:38:16.952Z,5.90
2023-02-15T10:43:50.866Z,6.00
2023-02-15T10:48:52.817Z,6.10
2023-02-15T10:54:32.268Z,6.10
2023-02-15T10:59:41.913Z,6.20
2023-02-15T11:05:09.762Z,6.30
2023-02-15T11:10:16.749Z,6.40
2023-02-15T11:15:31.498Z,6.40
2023-02-15T11:20:42.727Z,6.50
2023-02-15T11:25:47.504Z,6.50
2023-02-15T11:30:54.796Z,6.40
2023-02-15T11:36:06.464Z,6.40
2023-02-15T11:41:16.106Z,6.50
2023-02-15T11:46:19.924Z,6.60
2023-02-15T11:51:24.336Z,6.70
2023-02-15T11:56:27.319Z,6.80
2023-02-15T12:01:37.407Z,7.00
2023-02-15T12:06:46.663Z,7.10
2023-02-15T12:11:48.776Z,7.20
2023-02-15T12:16:56.978Z,7.10
2023-02-15T12:22:00.581Z,7.00
2023-02-15T12:27:06.429Z,7.20
2023-02-15T12:32:19.283Z,7.20
2023-02-15T12:37:26.719Z,7.40
2023-02-15T12:42:41.917Z,7.60
2023-02-15T12:47:43.882Z,7.80
2023-02-15T12:52:48.700Z,8.10
2023-02-15T12:58:05.524Z,8.60
2023-02-15T13:03:18.256Z,8.80
2023-02-15T13:08:23.161Z,9.10
2023-02-15T13:13:34.359Z,9.40
2023-02-15T13:18:44.257Z,9.80
2023-02-15T13:23:58.868Z,10.00
2023-02-15T13:29:13.200Z,10.20
2023-02-15T13:34:31.290Z,10.30
2023-02-15T13:39:45.430Z,10.50
2023-02-15T13:44:53.271Z,10.60
2023-02-15T13:50:16.233Z,10.60
2023-02-15T13:55:28.935Z,10.80
2023-02-15T14:00:50.993Z,10.90
2023-02-15T14:06:16.267Z,11.10
2023-02-15T14:11:18.120Z,11.30
2023-02-15T14:17:05.407Z,11.50
2023-02-15T14:22:33.332Z,11.70
2023-02-15T14:27:47.250Z,11.90
2023-02-15T14:32:55.922Z,12.00
2023-02-15T14:38:22.734Z,12.00
2023-02-15T14:43:43.307Z,12.20
2023-02-15T14:48:52.882Z,12.10
2023-02-15T14:53:54.902Z,11.70
2023-02-15T14:58:59.605Z,11.40
2023-02-15T15:04:06.769Z,11.00
2023-02-15T15:09:28.315Z,10.80
2023-02-15T15:14:33.508Z,10.60
2023-02-15T15:19:51.986Z,10.30
2023-02-15T15:24:55.551Z,10.20
2023-02-15T15:29:57.597Z,10.00
2023-02-15T15:35:15.785Z,10.00
2023-02-15T15:40:21.699Z,9.70
2023-02-15T15:45:48.089Z,9.60
2023-02-15T15:50:57.696Z,9.40
2023-02-15T15:56:07.810Z,9.10
2023-02-15T16:01:12.526Z,8.90
2023-02-15T16:06:15.793Z,8.70
2023-02-15T16:11:23.554Z,8.60
2023-02-15T16:16:29.100Z,8.50
2023-02-15T16:21:35.278Z,8.40
2023-02-15T16:26:59.306Z,8.30
2023-02-15T16:32:07.054Z,8.20
2023-02-15T16:37:19.832Z,7.90
2023-02-15T16:42:22.524Z,7.80
2023-02-15T16:47:28.240Z,7.70
2023-02-15T16:52:30.859Z,7.70
2023-02-15T16:57:36.548Z,7.50
2023-02-15T17:02:55.567Z,7.50
2023-02-15T17:08:04.227Z,7.60
2023-02-15T17:13:17.522Z,7.60
2023-02-15T17:18:22.678Z,7.50
2023-02-15T17:23:30.404Z,7.40
2023-02-15T17:28:32.747Z,7.20
2023-02-15T17:33:34.815Z,7.10
2023-02-15T17:38:39.329Z,7.10
2023-02-15T17:43:43.043Z,7.10
2023-02-15T17:48:48.042Z,7.00
2023-02-15T17:54:08.706Z,7.00
2023-02-15T17:59:12.397Z,7.00
2023-02-15T18:04:34.409Z,6.90
2023-02-15T18:09:54.740Z,6.80
2023-02-15T18:14:57.838Z,6.70
2023-02-15T18:20:05.246Z,6.60
2023-02-15T18:25:16.918Z,6.60
2023-02-15T18:30:21.939Z,6.60
2023-02-15T18:35:29.042Z,6.60
2023-02-15T18:40:31.429Z,6.60
2023-02-15T18:45:35.213Z,6.40
2023-02-15T18:50:38.485Z,6.30
2023-02-15T18:55:40.567Z,6.20
2023-02-15T19:00:43.587Z,6.20
2023-02-15T19:05:47.597Z,6.10
2023-02-15T19:10:49.700Z,6.00
2023-02-15T19:15:51.893Z,5.90
2023-02-15T19:20:54.047Z,5.80
2023-02-15T19:25:56.049Z,5.80
2023-02-15T19:30:58.634Z,5.70
2023-02-15T19:36:00.845Z,5.70
2023-02-15T19:41:07.450Z,5.60
2023-02-15T19:46:16.918Z,5.60
2023-02-15T19:51:21.540Z,5.60
2023-02-15T19:56:24.382Z,5.50
2023-02-15T20:01:27.228Z,5.40
2023-02-15T20:06:29.362Z,5.40
2023-02-15T20:11:31.280Z,5.30
2023-02-15T20:16:33.830Z,5.30
2023-02-15T20:21:36.335Z,5.30
2023-02-15T20:26:39.066Z,5.30
2023-02-15T20:31:41.680Z,5.30
2023-02-15T20:36:43.771Z,5.30
2023-02-15T20:41:48.468Z,5.30
2023-02-15T20:46:53.040Z,5.30
2023-02-15T20:51:56.286Z,5.30
2023-02-15T20:56:59.158Z,5.40
2023-02-15T21:02:15.883Z,5.40
2023-02-15T21:07:20.034Z,5.40
2023-02-15T21:12:22.279Z,5.40
2023-02-15T21:17:24.524Z,5.40
2023-02-15T21:22:27.016Z,5.40
2023-02-15T21:27:28.949Z,5.30
2023-02-15T21:32:30.964Z,5.30
2023-02-15T21:37:36.372Z,5.30
2023-02-15T21:42:56.997Z,5.40
2023-02-15T21:47:59.035Z,5.40
2023-02-15T21:53:02.408Z,5.40
2023-02-15T21:58:04.551Z,5.50
2023-02-15T22:03:06.390Z,5.50
2023-02-15T22:08:15.663Z,5.60
2023-02-15T22:13:24.697Z,5.60
2023-02-15T22:18:33.790Z,5.50
2023-02-15T22:23:36.005Z,5.40
2023-02-15T22:28:40.091Z,5.30
2023-02-15T22:33:42.163Z,5.20
2023-02-15T22:38:43.953Z,5.20
2023-02-15T22:43:47.108Z,5.10
2023-02-15T22:48:49.395Z,5.10
2023-02-15T22:53:54.545Z,4.90
2023-02-15T22:59:02.039Z,4.90
2023-02-15T23:04:04.468Z,4.80
2023-02-15T23:09:06.403Z,4.70
2023-02-15T23:14:27.729Z,4.80
2023-02-15T23:19:29.627Z,4.80
2023-02-15T23:24:34.489Z,4.90
2023-02-15T23:29:36.279Z,4.80
2023-02-15T23:34:38.288Z,4.70
2023-02-15T23:39:58.618Z,4.70
2023-02-15T23:45:01.399Z,4.70
2023-02-15T23:50:03.309Z,4.70
2023-02-15T23:55:05.452Z,4.80
